Airfield :
LOGIN :

Register | Disclaimer

   EN    FR    IT 

 










Legend :    VFR   Marginal VFR   IFR   Intensive IFR   Very Intensive IFR
Visi :
Ceiling :
>= 8 km
>= 3000ft
5 to 8 km
1000 to 3000 ft
1500m to 5 km
500 to 1000 ft
800 to 1500m
200 to 500 ft
< 800m
< 200 ft
Symbols :   Thunderstorms  Fog  Heavy snow  Heavy precipitations  Wind > 20 kt
SIGMETs :     Misc.  Thunderstorms  Icing  Turbulence  Mountain Waves  Volcanic Ashes






- Airport Elevation : 459 ft
- IATA code : CER


LFRC - Cherbourg / Maupertus

CURRENT METAR :
  • 201830Z AUTO 03008KT 9999 BKN023 BKN036 BKN048 11/07 Q1011

EXPIRED METARs :
  • 201800Z AUTO 03007KT 360V060 9999 SCT024 BKN039 BKN052 11/07 Q1011
  • 201730Z AUTO 03008KT 9999 SCT021 SCT026 BKN054 11/07 Q1011 TEMPO 02015G25KT 4000 SHRA BKN015TCU
  • 201700Z AUTO 03008KT 9999 BKN019 BKN026 BKN032 11/07 Q1011 TEMPO 02015G25KT 4000 SHRA BKN015TCU
  • 201630Z AUTO 03007KT 360V060 9999 BKN021 BKN027 BKN042 11/07 Q1010 TEMPO 02015G25KT 4000 SHRA BKN015TCU
  • 201600Z AUTO 03008KT 9999 BKN022 BKN029 BKN040 11/07 Q1010 TEMPO 02015G25KT SHRA BKN013

TAF TAF LFRC
Valid from the 20 at 15:00 until the 21 at 00:00 UTC


201400Z 2015/2024 02010KT 9999 SCT020
TEMPO 2015/2024 02015G25KT
PROB30
TEMPO 2015/2018 5000 SHRA BKN013
TEMPO 2018/2024 4000 SHRA BKN015TCU



MET'MAP, your aeronautical weather chart ! - Copyright ORBIFLY December 2007 - Disclaimer

ORBIFLY MET'MAP TEAM :

Programming & Development : Alexandra Zaïnal
Concept & Development : Baudouin d'Aumeries
Co-Development & Prog : Marc-Olivier Méhu
Technical & hardware support : Manuel Goepfert

Contact : metmap@orbifly.com




SOURCES & CREDITS :

   NOAA